Time;durP1;ratioP1;P1;durP2;ratioP2;P2;SDS_P1;SDS_P2;PMS_P1;PMS_P2;Temp;Humidity;BMP_temperature;BMP_pressure;BME280_temperature;BME280_humidity;BME280_pressure;Samples;Min_cycle;Max_cycle;Signal;HPM_P1;HPM_P2
2022/07/19 00:00:33;;;;;;;7.20;5.25;;;;;;;19.29;100.00;101945.19;4985378;28;20041;-80
2022/07/19 00:03:02;;;;;;;6.10;5.00;;;;;;;19.27;100.00;101948.81;4954494;28;20050;-82
2022/07/19 00:05:30;;;;;;;6.30;5.03;;;;;;;19.23;100.00;101941.75;4969386;28;20042;-80
2022/07/19 00:07:59;;;;;;;6.85;5.22;;;;;;;19.18;100.00;101941.81;4924905;28;20385;-79
2022/07/19 00:10:27;;;;;;;8.23;4.88;;;;;;;19.15;100.00;101940.97;4966617;28;20279;-80
2022/07/19 00:12:58;;;;;;;8.50;5.38;;;;;;;19.10;100.00;101946.41;4964278;28;20109;-80
2022/07/19 00:15:27;;;;;;;6.18;4.68;;;;;;;19.05;100.00;101945.56;4946003;28;20138;-81
2022/07/19 00:17:55;;;;;;;6.68;5.20;;;;;;;19.01;100.00;101936.72;4974367;28;20053;-80
2022/07/19 00:20:24;;;;;;;7.50;4.72;;;;;;;18.99;100.00;101935.88;4989710;28;20038;-80
2022/07/19 00:22:55;;;;;;;5.85;5.10;;;;;;;18.96;100.00;101933.25;4940087;28;20527;-80
2022/07/19 00:25:23;;;;;;;6.85;5.68;;;;;;;18.92;100.00;101931.50;4972828;28;20050;-80
2022/07/19 00:27:52;;;;;;;7.47;5.85;;;;;;;18.91;100.00;101920.88;4930588;28;20377;-81
2022/07/19 00:30:20;;;;;;;10.30;6.18;;;;;;;18.89;100.00;101929.78;4951047;28;20149;-79
2022/07/19 00:32:49;;;;;;;7.40;6.22;;;;;;;18.88;100.00;101935.13;4988439;28;20049;-82
2022/07/19 00:35:18;;;;;;;5.82;5.05;;;;;;;18.89;100.00;101931.56;4970087;28;20320;-79
2022/07/19 00:37:46;;;;;;;9.35;5.40;;;;;;;18.88;100.00;101936.03;4932933;28;20046;-80
2022/07/19 00:40:24;;;;;;;5.53;4.97;;;;;;;18.88;100.00;101938.72;4970051;28;20058;-79
2022/07/19 00:42:54;;;;;;;8.32;5.60;;;;;;;18.87;100.00;101934.25;4964019;28;20388;-79
2022/07/19 00:45:23;;;;;;;;;;;;;;;18.86;100.00;101939.63;4980193;28;20050;-80
2022/07/19 00:47:52;;;;;;;6.03;5.05;;;;;;;18.85;100.00;101941.41;4956370;28;19929;-79
2022/07/19 00:50:21;;;;;;;6.35;5.57;;;;;;;18.82;100.00;101937.91;4985686;28;20278;-80
2022/07/19 00:52:53;;;;;;;10.10;5.60;;;;;;;18.80;100.00;101937.00;4989592;28;20046;-81
2022/07/19 00:55:38;;;;;;;5.90;5.07;;;;;;;18.78;100.00;101937.03;4982283;28;20057;-80
2022/07/19 00:58:08;;;;;;;7.80;5.72;;;;;;;18.76;100.00;101935.28;4971425;28;20046;-80
2022/07/19 01:00:38;;;;;;;12.77;5.88;;;;;;;18.74;100.00;101940.63;4965256;28;20034;-79
2022/07/19 01:03:10;;;;;;;7.20;5.68;;;;;;;18.70;100.00;101947.81;4986845;23;20065;-78
2022/07/19 01:05:38;;;;;;;5.93;5.22;;;;;;;18.68;100.00;101946.94;4963942;28;20050;-77
2022/07/19 01:08:06;;;;;;;6.32;5.32;;;;;;;18.65;100.00;101949.66;4951664;28;20608;-77
2022/07/19 01:10:35;;;;;;;8.85;6.03;;;;;;;18.61;100.00;101941.72;4967992;28;20046;-77
2022/07/19 01:13:04;;;;;;;6.57;5.10;;;;;;;18.57;100.00;101940.84;4960149;28;20055;-78
2022/07/19 01:15:32;;;;;;;8.65;5.55;;;;;;;18.54;100.00;101943.56;4933320;28;20383;-78
2022/07/19 01:18:01;;;;;;;6.43;5.57;;;;;;;18.51;100.00;101933.81;4979077;28;20047;-77
2022/07/19 01:20:29;;;;;;;6.72;5.70;;;;;;;18.49;100.00;101945.41;4963222;28;20149;-77
2022/07/19 01:22:59;;;;;;;7.88;6.60;;;;;;;18.45;100.00;101946.34;4947635;28;20039;-78
2022/07/19 01:25:31;;;;;;;5.93;5.32;;;;;;;18.42;100.00;101941.06;4946281;28;20157;-78
2022/07/19 01:28:00;;;;;;;8.57;5.75;;;;;;;18.37;100.00;101941.09;4970977;28;20415;-78
2022/07/19 01:30:28;;;;;;;6.90;5.18;;;;;;;18.35;100.00;101942.03;4957925;28;20134;-78
2022/07/19 01:32:57;;;;;;;7.45;5.63;;;;;;;18.31;100.00;101941.16;4942823;28;20043;-78
2022/07/19 01:35:26;;;;;;;6.43;5.35;;;;;;;18.27;100.00;101943.00;4981998;28;20193;-79
2022/07/19 01:37:56;;;;;;;8.25;5.75;;;;;;;18.24;100.00;101932.38;4983177;28;20054;-78
2022/07/19 01:40:25;;;;;;;6.70;5.22;;;;;;;18.19;100.00;101931.53;4929045;28;20059;-77
2022/07/19 01:42:53;;;;;;;7.60;5.80;;;;;;;18.17;100.00;101944.00;4968829;28;20412;-79
2022/07/19 01:45:22;;;;;;;8.10;6.30;;;;;;;18.13;100.00;101944.94;4923078;28;20070;-77
2022/07/19 01:47:50;;;;;;;8.43;6.03;;;;;;;18.13;100.00;101934.28;4968184;28;20500;-78
2022/07/19 01:50:19;;;;;;;7.88;5.40;;;;;;;18.11;100.00;101936.94;4978097;28;20594;-78
2022/07/19 01:52:47;;;;;;;7.45;5.47;;;;;;;18.11;100.00;101933.41;4978755;28;20047;-77
2022/07/19 01:55:19;;;;;;;8.65;6.03;;;;;;;18.10;100.00;101935.16;4929852;28;20172;-77
2022/07/19 01:57:49;;;;;;;8.00;5.97;;;;;;;18.14;100.00;101937.81;4969708;28;20050;-78
2022/07/19 02:00:20;;;;;;;10.80;6.15;;;;;;;18.14;100.00;101936.03;4934386;28;20082;-79
2022/07/19 02:02:48;;;;;;;7.70;5.80;;;;;;;18.15;100.00;101937.81;4948488;28;20032;-79
2022/07/19 02:05:16;;;;;;;8.07;5.97;;;;;;;18.15;100.00;101937.81;4915698;28;20724;-78
2022/07/19 02:07:47;;;;;;;9.50;6.18;;;;;;;18.14;100.00;101928.03;4953383;28;20400;-77
2022/07/19 02:10:18;;;;;;;8.57;5.75;;;;;;;18.13;100.00;101926.28;4931711;28;20154;-78
2022/07/19 02:12:46;;;;;;;9.65;6.22;;;;;;;18.12;100.00;101929.81;4936428;28;20397;-78
2022/07/19 02:15:15;;;;;;;11.25;5.78;;;;;;;18.12;100.00;101937.81;4946377;28;20281;-78
2022/07/19 02:17:44;;;;;;;9.32;6.32;;;;;;;18.09;100.00;101930.75;4938739;28;20062;-79
2022/07/19 02:20:12;;;;;;;8.65;5.93;;;;;;;18.07;100.00;101934.31;4944400;28;20518;-79
2022/07/19 02:22:41;;;;;;;10.35;6.53;;;;;;;18.05;100.00;101930.78;4966718;28;20046;-78
2022/07/19 02:25:10;;;;;;;9.30;6.47;;;;;;;18.04;100.00;101929.91;4880851;28;21754;-78
2022/07/19 02:27:39;;;;;;;8.48;6.55;;;;;;;18.04;100.00;101923.69;4938414;28;20038;-79
2022/07/19 02:30:09;;;;;;;7.72;6.50;;;;;;;18.04;100.00;101910.38;4930309;28;20043;-78
2022/07/19 02:32:38;;;;;;;11.65;6.90;;;;;;;18.02;100.00;101915.72;4940746;28;20053;-78
2022/07/19 02:35:08;;;;;;;10.25;6.90;;;;;;;18.01;100.00;101913.06;4915947;28;20058;-79
2022/07/19 02:37:37;;;;;;;10.87;7.03;;;;;;;18.00;100.00;101912.19;4933244;28;20494;-78
2022/07/19 02:40:07;;;;;;;12.43;7.43;;;;;;;18.02;100.00;101921.03;4961880;28;20047;-77
2022/07/19 02:42:35;;;;;;;9.43;6.80;;;;;;;18.04;100.00;101919.25;4907771;28;20544;-78
2022/07/19 02:45:04;;;;;;;10.40;6.80;;;;;;;18.06;100.00;101922.78;4963949;28;20352;-80
2022/07/19 02:47:33;;;;;;;11.07;6.97;;;;;;;18.08;100.00;101914.75;4940879;28;20045;-79
2022/07/19 02:50:02;;;;;;;9.38;7.18;;;;;;;18.09;100.00;101905.84;4931773;28;20047;-77
2022/07/19 02:52:30;;;;;;;9.75;7.30;;;;;;;18.10;100.00;101908.50;4938976;28;20050;-77
2022/07/19 02:54:59;;;;;;;10.88;7.60;;;;;;;18.12;100.00;101908.47;4942423;28;20533;-80
2022/07/19 02:57:27;;;;;;;10.60;6.93;;;;;;;18.15;100.00;101913.81;4894325;28;20066;-77
2022/07/19 02:59:55;;;;;;;15.57;8.38;;;;;;;18.17;100.00;101909.31;4949176;28;20047;-78
2022/07/19 03:02:24;;;;;;;8.20;7.28;;;;;;;18.19;100.00;101907.53;4904020;28;20373;-78
2022/07/19 03:04:52;;;;;;;8.35;6.65;;;;;;;18.21;100.00;101905.72;4902658;28;20053;-78
2022/07/19 03:07:21;;;;;;;8.77;6.63;;;;;;;18.20;100.00;101919.94;4912741;28;20062;-78
2022/07/19 03:09:49;;;;;;;12.65;7.47;;;;;;;18.19;100.00;101907.53;4962607;28;20039;-77
2022/07/19 03:12:18;;;;;;;11.90;7.65;;;;;;;18.17;100.00;101900.44;4911697;28;20046;-77
2022/07/19 03:14:47;;;;;;;8.93;7.32;;;;;;;18.14;100.00;101898.69;4967166;28;20042;-78
2022/07/19 03:17:20;;;;;;;11.05;7.85;;;;;;;18.13;100.00;101902.25;4951834;28;20047;-77
2022/07/19 03:19:48;;;;;;;12.07;8.23;;;;;;;18.12;100.00;101908.47;4934385;28;20054;-78
2022/07/19 03:22:16;;;;;;;14.65;8.38;;;;;;;18.10;100.00;101908.50;4945900;28;20348;-79
2022/07/19 03:24:45;;;;;;;13.60;10.38;;;;;;;18.10;100.00;101897.81;4966004;28;20051;-78
2022/07/19 03:27:14;;;;;;;25.10;17.27;;;;;;;18.12;100.00;101903.16;4929746;28;20600;-78
2022/07/19 03:29:42;;;;;;;21.35;15.55;;;;;;;18.15;100.00;101903.13;4936853;28;20391;-77
2022/07/19 03:32:10;;;;;;;21.80;16.67;;;;;;;18.19;100.00;101901.31;4929402;28;20035;-78
2022/07/19 03:34:39;;;;;;;23.80;16.52;;;;;;;18.22;100.00;101907.50;4957347;28;20530;-77
2022/07/19 03:37:07;;;;;;;20.90;16.92;;;;;;;18.25;100.00;101907.44;4962143;28;20803;-78
2022/07/19 03:39:35;;;;;;;22.08;17.48;;;;;;;18.31;100.00;101909.16;4965445;28;20054;-77
2022/07/19 03:42:04;;;;;;;19.92;14.23;;;;;;;18.33;100.00;101914.47;4932360;28;20031;-78
2022/07/19 03:44:33;;;;;;;18.15;14.68;;;;;;;18.32;100.00;101913.59;4915524;28;20054;-77
2022/07/19 03:47:01;;;;;;;22.65;16.23;;;;;;;18.33;100.00;101906.47;4941946;28;20043;-78
2022/07/19 03:49:30;;;;;;;19.63;15.57;;;;;;;18.33;100.00;101903.81;4946179;28;20038;-78
2022/07/19 03:51:59;;;;;;;21.73;16.88;;;;;;;18.32;100.00;101900.25;4950647;28;20047;-78
2022/07/19 03:54:27;;;;;;;22.27;15.65;;;;;;;18.33;100.00;101901.13;4936477;28;20239;-77
2022/07/19 03:57:00;;;;;;;20.52;15.30;;;;;;;18.33;100.00;101903.81;4953783;28;20055;-78
2022/07/19 03:59:28;;;;;;;23.27;16.95;;;;;;;18.33;100.00;101903.81;4928962;29;20047;-78
2022/07/19 04:01:56;;;;;;;19.90;16.80;;;;;;;18.33;100.00;101899.34;4895861;28;20396;-80
2022/07/19 04:04:25;;;;;;;28.75;21.70;;;;;;;18.34;100.00;101900.25;4934348;28;20313;-78
2022/07/19 04:06:55;;;;;;;29.25;22.10;;;;;;;18.36;100.00;101904.66;4959787;28;20059;-78
2022/07/19 04:09:23;;;;;;;30.13;23.33;;;;;;;18.38;100.00;101896.63;4919529;28;20062;-79
2022/07/19 04:11:51;;;;;;;29.83;24.23;;;;;;;18.40;100.00;101897.50;4967242;28;20046;-78
2022/07/19 04:14:20;;;;;;;28.45;23.33;;;;;;;18.45;100.00;101896.53;4950332;28;20314;-77
2022/07/19 04:16:51;;;;;;;30.77;22.48;;;;;;;18.49;100.00;101895.59;4902427;28;20057;-78
2022/07/19 04:19:19;;;;;;;27.63;23.67;;;;;;;18.55;100.00;101896.41;4957900;28;20043;-77
2022/07/19 04:21:48;;;;;;;37.00;24.38;;;;;;;18.69;100.00;101892.66;4945256;28;20058;-77
2022/07/19 04:24:16;;;;;;;28.45;22.63;;;;;;;19.01;100.00;101896.66;4949287;28;20161;-78
2022/07/19 04:26:44;;;;;;;29.05;22.17;;;;;;;19.40;100.00;101893.38;4936707;28;20038;-78
2022/07/19 04:29:13;;;;;;;30.88;20.83;;;;;;;19.78;100.00;101898.06;4966501;28;20046;-78
2022/07/19 04:31:41;;;;;;;23.52;20.55;;;;;;;20.16;100.00;101896.44;4910740;28;20395;-78
2022/07/19 04:34:10;;;;;;;25.67;19.50;;;;;;;20.53;99.40;101892.13;4932222;28;20043;-78
2022/07/19 04:36:38;;;;;;;21.15;17.70;;;;;;;20.89;97.79;101901.19;4960443;28;20051;-78
2022/07/19 04:39:06;;;;;;;20.88;13.88;;;;;;;21.22;95.06;101901.28;4948905;28;20058;-78
2022/07/19 04:41:35;;;;;;;22.95;16.15;;;;;;;21.55;93.35;101896.00;4937811;28;20693;-78
2022/07/19 04:44:04;;;;;;;17.08;13.88;;;;;;;21.87;92.07;101896.94;4964462;28;20042;-78
2022/07/19 04:46:32;;;;;;;17.25;12.55;;;;;;;22.22;90.62;101908.53;4915966;28;20055;-78
2022/07/19 04:49:01;;;;;;;16.08;12.98;;;;;;;22.51;89.77;101899.63;4950630;28;20039;-76
2022/07/19 04:51:29;;;;;;;16.45;12.80;;;;;;;22.79;88.31;101905.03;4910273;28;20512;-77
2022/07/19 04:53:58;;;;;;;14.55;11.85;;;;;;;23.06;85.87;101899.75;4928905;28;20263;-77
2022/07/19 04:56:26;;;;;;;12.65;9.90;;;;;;;23.32;85.24;101893.50;4934173;28;20034;-78
2022/07/19 04:58:54;;;;;;;14.02;9.77;;;;;;;23.60;82.78;101898.81;4935863;28;20046;-77
2022/07/19 05:01:23;;;;;;;11.02;9.02;;;;;;;23.85;81.42;101903.38;4936093;28;20420;-78
2022/07/19 05:03:51;;;;;;;8.50;7.63;;;;;;;24.13;80.05;101896.03;4903589;28;20127;-78
2022/07/19 05:06:20;;;;;;;12.25;8.57;;;;;;;24.46;78.97;101893.03;4969326;28;20058;-79
2022/07/19 05:08:48;;;;;;;10.35;7.55;;;;;;;24.76;76.78;101900.84;4953418;28;20034;-77
2022/07/19 05:11:17;;;;;;;9.80;7.90;;;;;;;25.05;75.18;101896.13;4933990;28;20057;-77
2022/07/19 05:13:45;;;;;;;12.25;7.40;;;;;;;25.30;73.70;101890.63;4948094;28;20039;-77
2022/07/19 05:16:14;;;;;;;9.93;7.82;;;;;;;25.60;72.89;101895.66;4929664;28;20047;-77
2022/07/19 05:18:42;;;;;;;16.10;7.47;;;;;;;25.89;71.63;101894.34;4918257;28;20054;-78
2022/07/19 05:21:11;;;;;;;10.20;7.13;;;;;;;26.15;68.52;101897.75;4931670;28;20363;-79
2022/07/19 05:23:41;;;;;;;13.50;7.55;;;;;;;26.41;68.83;101904.66;4909487;28;20042;-85
2022/07/19 05:26:10;;;;;;;7.63;6.82;;;;;;;26.67;68.03;101900.72;4922405;28;20069;-85
2022/07/19 05:28:38;;;;;;;10.60;7.43;;;;;;;26.83;67.35;101896.34;4925602;28;20511;-82
2022/07/19 05:31:07;;;;;;;12.60;7.45;;;;;;;27.06;64.11;101907.84;4936549;28;20181;-85
2022/07/19 05:33:36;;;;;;;7.35;6.57;;;;;;;27.33;64.33;101904.75;4924222;28;20050;-83
2022/07/19 05:36:05;;;;;;;8.50;6.43;;;;;;;27.65;64.44;101910.34;4895093;28;20043;-84
2022/07/19 05:38:34;;;;;;;10.40;6.40;;;;;;;27.86;61.33;101906.50;4962012;28;20047;-85
2022/07/19 05:41:03;;;;;;;7.30;6.60;;;;;;;28.13;60.74;101895.19;4971667;28;20054;-84
2022/07/19 05:43:31;;;;;;;11.75;6.38;;;;;;;28.40;59.86;101903.63;4912435;28;20332;-84
2022/07/19 05:46:00;;;;;;;7.97;6.18;;;;;;;28.65;58.24;101895.03;4933204;28;20399;-86
2022/07/19 05:48:29;;;;;;;6.85;6.05;;;;;;;28.82;58.07;101894.06;4908609;28;20067;-82
2022/07/19 05:50:58;;;;;;;7.43;6.68;;;;;;;28.85;55.51;101903.88;4874434;28;20340;-83
2022/07/19 05:53:28;;;;;;;12.65;6.82;;;;;;;28.61;55.86;101904.31;4955889;28;20111;-84
2022/07/19 05:55:56;;;;;;;11.18;6.95;;;;;;;28.29;56.70;101898.78;4894041;28;20256;-83
2022/07/19 05:58:24;;;;;;;7.35;6.47;;;;;;;28.03;57.02;101904.75;4924386;28;20047;-85
2022/07/19 06:01:17;;;;;;;12.07;6.95;;;;;;;27.85;57.29;101901.19;4936630;28;20255;-83
2022/07/19 06:03:54;;;;;;;13.20;7.00;;;;;;;27.88;56.43;101898.28;4936115;28;20146;-84
2022/07/19 06:06:33;;;;;;;9.15;7.15;;;;;;;27.77;56.71;101896.19;4945119;28;20054;-81
2022/07/19 06:09:02;;;;;;;7.70;6.88;;;;;;;27.59;58.29;101896.16;4962581;28;20062;-83
2022/07/19 06:11:31;;;;;;;9.43;7.22;;;;;;;27.36;57.87;101886.53;4944375;28;20416;-85
2022/07/19 06:14:02;;;;;;;12.93;7.28;;;;;;;27.13;56.89;101890.38;4932143;28;20054;-84
2022/07/19 06:16:31;;;;;;;8.93;6.43;;;;;;;26.94;57.62;101898.53;4972111;28;20050;-84
2022/07/19 06:18:59;;;;;;;12.70;6.88;;;;;;;26.78;57.99;101897.50;4936895;28;20065;-83
2022/07/19 06:21:28;;;;;;;9.48;6.93;;;;;;;26.63;58.04;101893.72;4943944;28;20046;-81
2022/07/19 06:23:57;;;;;;;7.13;6.15;;;;;;;26.50;58.28;101895.22;4946179;28;20047;-84
2022/07/19 06:26:28;;;;;;;7.10;6.40;;;;;;;26.40;58.39;101903.75;4942773;28;20050;-84
2022/07/19 06:28:57;;;;;;;11.63;7.05;;;;;;;26.34;58.27;101901.34;4927247;28;20307;-81
2022/07/19 06:31:26;;;;;;;11.20;5.97;;;;;;;26.39;59.61;101896.63;4968328;28;20046;-83
2022/07/19 06:33:54;;;;;;;8.23;6.90;;;;;;;26.40;60.65;101892.94;4928530;28;20379;-82
2022/07/19 06:36:25;;;;;;;14.57;7.20;;;;;;;26.48;60.17;101889.00;4944098;28;20123;-86
2022/07/19 06:38:53;;;;;;;8.10;5.85;;;;;;;26.58;59.76;101888.50;4889899;28;20495;-82
2022/07/19 06:41:22;;;;;;;8.20;5.72;;;;;;;26.57;60.85;101884.03;4947012;28;20496;-82
2022/07/19 06:43:58;;;;;;;7.03;5.40;;;;;;;26.49;60.21;101882.66;4922828;28;20333;-82
2022/07/19 06:46:26;;;;;;;10.18;5.95;;;;;;;26.40;59.83;101887.53;4943330;28;20043;-85
2022/07/19 06:48:55;;;;;;;10.20;5.90;;;;;;;26.25;61.19;101889.13;4960206;28;20085;-85
2022/07/19 06:51:23;;;;;;;12.07;5.97;;;;;;;26.16;61.47;101888.69;4950730;28;20400;-81
2022/07/19 06:53:52;;;;;;;11.02;6.63;;;;;;;26.10;60.77;101888.97;4917900;28;20085;-82
2022/07/19 06:56:20;;;;;;;11.52;6.43;;;;;;;25.99;61.72;101892.16;4959119;28;20256;-80
2022/07/19 06:58:49;;;;;;;8.45;6.47;;;;;;;25.95;62.39;101893.25;4935497;28;20671;-83
2022/07/19 07:01:19;;;;;;;13.65;6.15;;;;;;;25.94;63.37;101889.66;4942517;28;20043;-84
2022/07/19 07:31:08;;;;;;;7.55;5.30;;;;;;;26.58;63.52;101868.72;6211307;22;20552;-82
2022/07/19 07:33:37;;;;;;;8.82;6.20;;;;;;;26.65;63.93;101862.06;6149000;23;20031;-84
2022/07/19 07:36:06;;;;;;;10.77;7.20;;;;;;;26.75;63.90;101858.00;6158232;23;20344;-81
2022/07/19 07:38:34;;;;;;;9.45;7.70;;;;;;;26.84;64.48;101854.84;6154798;23;20354;-83
2022/07/19 07:41:06;;;;;;;9.77;8.60;;;;;;;26.93;63.01;101849.91;6135414;23;20570;-80
2022/07/19 07:43:54;;;;;;;12.98;9.35;;;;;;;27.00;62.53;101845.97;6164986;23;20024;-81
2022/07/19 07:46:22;;;;;;;12.27;9.07;;;;;;;27.07;61.29;101850.13;6135403;23;20051;-78
2022/07/19 07:48:51;;;;;;;14.23;8.13;;;;;;;27.13;61.38;101847.09;6146342;23;20017;-84
2022/07/19 07:51:24;;;;;;;13.93;8.32;;;;;;;27.20;60.81;101847.63;6197014;23;20032;-82
2022/07/19 07:54:12;;;;;;;13.40;8.30;;;;;;;27.27;60.65;101846.41;6097792;23;20026;-82
2022/07/19 07:56:41;;;;;;;12.80;8.13;;;;;;;27.34;61.74;101839.72;6094986;23;20036;-80
2022/07/19 07:59:10;;;;;;;11.68;7.53;;;;;;;27.42;61.51;101844.75;6135995;23;20018;-83
2022/07/19 08:01:39;;;;;;;9.82;6.53;;;;;;;27.51;61.13;101837.97;6092486;23;20018;-80
2022/07/19 08:04:09;;;;;;;7.85;6.60;;;;;;;27.54;59.47;101838.69;6110103;23;20037;-79
2022/07/19 08:06:38;;;;;;;11.68;5.47;;;;;;;27.59;59.61;101836.59;6096708;23;20025;-80
2022/07/19 08:09:06;;;;;;;9.10;5.18;;;;;;;27.67;58.51;101829.91;6035711;23;20022;-82
2022/07/19 08:11:35;;;;;;;6.05;5.40;;;;;;;27.74;59.15;101829.50;6085532;23;20660;-80
2022/07/19 08:14:04;;;;;;;9.02;4.97;;;;;;;27.81;57.89;101835.47;6123035;23;20034;-81
2022/07/19 08:16:33;;;;;;;8.30;4.85;;;;;;;27.87;58.51;101837.84;6078233;23;20037;-79
2022/07/19 08:19:01;;;;;;;6.80;4.30;;;;;;;27.93;56.82;101828.53;6123999;23;20029;-80
2022/07/19 08:21:30;;;;;;;9.32;3.83;;;;;;;27.99;58.16;101826.34;6104122;23;20359;-80
2022/07/19 08:23:58;;;;;;;7.28;3.55;;;;;;;28.07;56.84;101819.66;6113309;23;20018;-80
2022/07/19 08:26:27;;;;;;;6.47;3.28;;;;;;;28.11;56.47;101826.66;6109911;23;20021;-81
2022/07/19 08:28:55;;;;;;;3.60;3.28;;;;;;;28.17;57.51;101820.91;6138357;23;20029;-79
2022/07/19 08:31:24;;;;;;;4.80;2.65;;;;;;;28.23;56.56;101827.81;6156486;23;20325;-84
2022/07/19 08:33:52;;;;;;;6.72;2.88;;;;;;;28.29;56.46;101820.19;6145060;23;20036;-81
2022/07/19 08:36:21;;;;;;;8.88;2.70;;;;;;;28.35;55.46;101818.97;6072389;23;20036;-82
2022/07/19 08:38:49;;;;;;;9.05;2.90;;;;;;;28.41;55.80;101823.19;6077504;23;20029;-84
2022/07/19 08:41:20;;;;;;;12.30;3.20;;;;;;;28.45;55.70;101817.53;6097701;23;20018;-84
2022/07/19 08:43:52;;;;;;;4.60;2.80;;;;;;;28.52;54.38;101816.22;6128691;23;20227;-83
2022/07/19 08:46:23;;;;;;;5.55;2.60;;;;;;;28.56;53.49;101815.09;6152643;23;20025;-82
2022/07/19 08:48:53;;;;;;;7.38;2.70;;;;;;;28.59;53.06;101808.63;6119714;23;20021;-83
2022/07/19 08:51:23;;;;;;;5.68;2.65;;;;;;;28.64;52.61;101803.81;6132454;23;20320;-82
2022/07/19 08:53:52;;;;;;;5.90;2.55;;;;;;;28.71;51.37;101812.44;6119324;23;20025;-80
2022/07/19 08:59:11;;;;;;;8.63;2.53;;;;;;;28.84;51.57;101820.75;6161523;23;20021;-82
2022/07/19 09:01:40;;;;;;;5.30;3.80;;;;;;;28.91;50.27;101814.88;6118587;23;20060;-81
2022/07/19 09:04:16;;;;;;;5.00;2.50;;;;;;;28.97;48.80;101819.06;6151173;23;20025;-82
2022/07/19 09:06:45;;;;;;;4.60;2.42;;;;;;;29.03;49.04;101817.81;6157275;23;20017;-81
2022/07/19 09:09:16;;;;;;;2.45;2.25;;;;;;;29.09;48.80;101814.72;6153075;23;20363;-81
2022/07/19 09:11:51;;;;;;;5.57;2.10;;;;;;;29.15;48.20;101815.28;6117870;23;20041;-81
2022/07/19 09:14:22;;;;;;;3.28;2.10;;;;;;;29.22;47.63;101814.91;6070017;23;20029;-81
2022/07/19 09:16:52;;;;;;;3.85;1.73;;;;;;;29.27;47.17;101813.66;6158573;23;20044;-81
2022/07/19 09:19:22;;;;;;;4.80;2.20;;;;;;;29.31;46.33;101812.50;6141687;23;20253;-81
2022/07/19 09:21:55;;;;;;;2.85;2.20;;;;;;;29.38;45.89;101818.44;6158977;23;20447;-81
2022/07/19 09:24:25;;;;;;;4.38;1.85;;;;;;;29.43;46.94;101816.31;6121337;23;20585;-81
2022/07/19 09:27:15;;;;;;;3.03;1.98;;;;;;;29.53;46.58;101817.50;6108007;23;20029;-82
2022/07/19 09:29:46;;;;;;;2.28;2.10;;;;;;;29.61;45.09;101808.00;6101915;23;20375;-81
2022/07/19 09:32:19;;;;;;;4.10;2.03;;;;;;;29.66;44.03;101806.75;6133678;23;20014;-81
2022/07/19 09:34:56;;;;;;;7.38;2.00;;;;;;;29.72;43.21;101809.09;6155333;23;20021;-81
2022/07/19 09:37:27;;;;;;;4.82;2.10;;;;;;;29.81;43.92;101815.84;6130019;23;20017;-81
2022/07/19 09:39:59;;;;;;;5.15;1.90;;;;;;;29.89;44.70;101805.34;6125765;23;20031;-82
2022/07/19 09:42:34;;;;;;;3.88;1.92;;;;;;;29.99;43.57;101807.47;6115562;23;20387;-82
2022/07/19 09:45:05;;;;;;;4.25;2.35;;;;;;;30.04;43.79;101791.72;6134537;23;20021;-82
2022/07/19 09:47:44;;;;;;;2.90;2.15;;;;;;;30.13;43.69;101794.75;6159794;23;20146;-82
2022/07/19 09:50:17;;;;;;;4.78;1.70;;;;;;;30.21;43.50;101788.81;6152249;23;20486;-82
2022/07/19 09:52:47;;;;;;;4.72;1.77;;;;;;;30.28;44.20;101792.88;6123142;23;20021;-82
2022/07/19 09:55:18;;;;;;;3.00;2.10;;;;;;;30.36;44.74;101794.25;6102504;23;20478;-82
2022/07/19 09:57:49;;;;;;;2.30;1.90;;;;;;;30.42;44.26;101792.00;6148255;23;20010;-81
2022/07/19 10:00:22;;;;;;;5.43;2.08;;;;;;;30.50;44.23;101791.50;6111337;23;20044;-80
2022/07/19 10:02:56;;;;;;;4.57;1.88;;;;;;;30.58;43.37;101805.44;6096076;23;20017;-82
2022/07/19 10:05:26;;;;;;;1.70;1.60;;;;;;;30.66;43.52;101789.50;6089991;23;20129;-81
2022/07/19 10:07:55;;;;;;;3.83;2.03;;;;;;;30.74;43.40;101790.81;6131306;23;20021;-80
2022/07/19 10:10:24;;;;;;;7.50;1.75;;;;;;;30.84;43.18;101790.09;6119031;23;20491;-80
2022/07/19 10:12:53;;;;;;;4.55;2.00;;;;;;;30.91;42.63;101790.59;6130686;23;20410;-79
2022/07/19 10:15:22;;;;;;;4.18;2.10;;;;;;;31.00;42.26;101786.34;6108497;23;20469;-81
2022/07/19 10:18:10;;;;;;;4.38;2.13;;;;;;;31.09;41.81;101783.00;6108038;23;20025;-83
2022/07/19 10:20:43;;;;;;;2.05;1.73;;;;;;;31.19;42.12;101783.22;6126913;23;20446;-81
2022/07/19 10:23:13;;;;;;;2.67;1.92;;;;;;;31.27;42.06;101786.31;6127708;23;20474;-80
2022/07/19 10:25:46;;;;;;;2.05;1.77;;;;;;;31.35;42.08;101783.91;6151178;23;20378;-80
2022/07/19 10:28:27;;;;;;;2.08;1.60;;;;;;;31.45;41.78;101779.56;6127494;23;20036;-81
2022/07/19 10:31:27;;;;;;;2.63;1.55;;;;;;;31.54;41.49;101782.66;6125221;23;20025;-81
2022/07/19 10:34:21;;;;;;;2.20;1.80;;;;;;;31.61;41.89;101779.38;6155131;23;20032;-80
2022/07/19 10:36:51;;;;;;;3.20;2.05;;;;;;;31.70;40.54;101776.97;6115472;23;20054;-81
2022/07/19 10:39:20;;;;;;;4.30;2.25;;;;;;;31.77;40.60;101770.09;6103338;23;20234;-80
2022/07/19 10:42:08;;;;;;;;;;;;;;;31.85;39.75;101770.41;6119294;23;20033;-80
2022/07/19 10:44:57;;;;;;;4.13;1.60;;;;;;;31.97;39.66;101761.34;6147335;23;19923;-80
2022/07/19 10:47:31;;;;;;;6.10;2.17;;;;;;;32.04;39.92;101762.69;6140427;23;20489;-80
2022/07/19 10:50:02;;;;;;;6.53;2.10;;;;;;;32.07;39.46;101760.72;6120348;23;20028;-80
2022/07/19 10:52:32;;;;;;;2.60;1.95;;;;;;;32.12;39.29;101759.41;6150845;23;20351;-81
2022/07/19 10:55:24;;;;;;;5.95;1.75;;;;;;;32.21;37.58;101757.81;6105414;23;20529;-80
2022/07/19 10:57:58;;;;;;;3.67;1.80;;;;;;;32.30;38.49;101757.13;6119491;23;20507;-80
2022/07/19 11:00:30;;;;;;;4.38;1.70;;;;;;;32.36;38.23;101751.22;6132512;23;20466;-80
2022/07/19 11:03:20;;;;;;;3.88;1.90;;;;;;;32.48;38.60;101749.44;6117056;23;20431;-82
2022/07/19 11:05:56;;;;;;;3.53;1.70;;;;;;;32.54;38.90;101742.66;6154885;23;20029;-81
2022/07/19 11:08:32;;;;;;;3.13;1.85;;;;;;;32.63;38.97;101747.44;6127945;23;20358;-81
2022/07/19 11:11:15;;;;;;;2.25;1.70;;;;;;;32.74;38.41;101750.22;6091948;23;20022;-80
2022/07/19 11:13:46;;;;;;;2.80;2.17;;;;;;;32.82;38.64;101749.63;6124666;23;20235;-81
2022/07/19 11:16:15;;;;;;;3.17;1.70;;;;;;;32.92;37.99;101745.19;6158389;23;20358;-80
2022/07/19 11:18:44;;;;;;;8.45;1.83;;;;;;;33.00;38.35;101730.94;6080357;23;20033;-81
2022/07/19 11:21:15;;;;;;;2.28;1.50;;;;;;;33.02;37.44;101735.31;6098395;23;20055;-81
2022/07/19 11:23:44;;;;;;;4.65;1.50;;;;;;;33.08;37.62;101733.94;6126567;23;20621;-81
2022/07/19 11:26:17;;;;;;;3.38;1.50;;;;;;;33.15;37.26;101734.38;6119918;23;20029;-81
2022/07/19 11:28:47;;;;;;;2.17;2.08;;;;;;;33.20;36.69;101724.81;6115519;23;20143;-81
2022/07/19 11:31:21;;;;;;;3.22;2.17;;;;;;;33.27;36.21;101721.59;6154371;23;20426;-81
2022/07/19 11:33:53;;;;;;;3.03;1.80;;;;;;;33.34;35.40;101711.91;6134768;23;20021;-82
2022/07/19 11:36:23;;;;;;;2.30;2.10;;;;;;;33.41;35.94;101714.03;6122114;23;20018;-81
2022/07/19 11:38:59;;;;;;;6.68;1.60;;;;;;;33.52;35.98;101715.91;6149007;23;20266;-81
2022/07/19 11:41:30;;;;;;;1.75;1.65;;;;;;;33.59;36.11;101711.69;6127610;23;20455;-82
2022/07/19 11:44:07;;;;;;;2.75;1.60;;;;;;;33.69;35.97;101713.72;6123982;23;20032;-81
2022/07/19 11:46:40;;;;;;;2.97;1.88;;;;;;;33.71;34.75;101696.19;6102552;23;20029;-81
2022/07/19 11:49:10;;;;;;;2.90;1.75;;;;;;;33.77;35.17;101711.22;6104423;23;20037;-81
2022/07/19 11:51:39;;;;;;;1.67;1.52;;;;;;;33.76;35.39;101701.25;6095418;23;20021;-80
2022/07/19 11:54:08;;;;;;;2.22;1.45;;;;;;;33.79;34.49;101698.28;6107421;23;20032;-80
2022/07/19 11:56:37;;;;;;;2.60;1.90;;;;;;;33.85;35.73;101689.56;6111055;23;20032;-81
2022/07/19 11:59:08;;;;;;;2.42;1.50;;;;;;;33.93;35.73;101694.41;6107481;23;20025;-81
2022/07/19 12:01:39;;;;;;;4.03;1.52;;;;;;;33.99;35.17;101693.91;6100501;23;20026;-80
2022/07/19 12:04:11;;;;;;;3.35;1.85;;;;;;;34.04;34.86;101690.78;6077505;23;20021;-80